Kansas City, Missouri
Traffic Map
Current Weather Conditions
Kansas City, Missouri
Few Clouds
Few Clouds
29°
Feels Like: 32°
Wind Chill: 29° Ceiling: Unl
Heat Index: 32° Visibility: 10mi
Dew Point: 21° Wind: 8mph
Humidity: 61% Direction: 160° (SSE)
Pressure: 29.79in Gusts: 0mph
Raw Report DataKMKC 261854Z 16007KT 10SM FEW100 29/21 A2979 RMK AO2 RAB04E13 SLP079 P0000 T02940211
Traffic Incident Summary
Active as of:
Severity:
Category:
InformationThere was an issue retrieving the traffic information for this location. Please try a different location or try again shortly.
Advertisements
Track Severe Weather on mobile